sensor_id;sensor_type;location;lat;lon;timestamp;P1;durP1;ratioP1;P2;durP2;ratioP2
76548;SDS011;65391;52.068;4.542;2023-03-21T00:00:23;11.5;;;5.6;;
76548;SDS011;65391;52.068;4.542;2023-03-21T00:02:48;11.4;;;5.6;;
76548;SDS011;65391;52.068;4.542;2023-03-21T00:05:13;11.4;;;5.6;;
76548;SDS011;65391;52.068;4.542;2023-03-21T00:07:38;11.4;;;5.6;;
76548;SDS011;65391;52.068;4.542;2023-03-21T00:10:03;11.4;;;5.6;;
76548;SDS011;65391;52.068;4.542;2023-03-21T00:12:28;8.3;;;4.6;;
76548;SDS011;65391;52.068;4.542;2023-03-21T00:14:53;8.3;;;4.6;;
76548;SDS011;65391;52.068;4.542;2023-03-21T00:17:18;8.3;;;4.6;;
76548;SDS011;65391;52.068;4.542;2023-03-21T00:19:43;8.3;;;4.6;;
76548;SDS011;65391;52.068;4.542;2023-03-21T00:22:08;12.2;;;6.9;;
76548;SDS011;65391;52.068;4.542;2023-03-21T00:24:33;12.2;;;6.9;;
76548;SDS011;65391;52.068;4.542;2023-03-21T00:26:58;12.2;;;6.9;;
76548;SDS011;65391;52.068;4.542;2023-03-21T00:29:23;12.2;;;6.9;;
76548;SDS011;65391;52.068;4.542;2023-03-21T00:31:48;16.2;;;9;;
76548;SDS011;65391;52.068;4.542;2023-03-21T00:34:13;16.2;;;9;;
76548;SDS011;65391;52.068;4.542;2023-03-21T00:36:38;16.2;;;9;;
76548;SDS011;65391;52.068;4.542;2023-03-21T00:39:03;16.2;;;9;;
76548;SDS011;65391;52.068;4.542;2023-03-21T00:41:28;16.2;;;9;;
76548;SDS011;65391;52.068;4.542;2023-03-21T00:43:53;16.4;;;9.6;;
76548;SDS011;65391;52.068;4.542;2023-03-21T00:46:18;16.4;;;9.6;;
76548;SDS011;65391;52.068;4.542;2023-03-21T00:48:43;16.4;;;9.6;;
76548;SDS011;65391;52.068;4.542;2023-03-21T00:51:13;16.4;;;9.6;;
76548;SDS011;65391;52.068;4.542;2023-03-21T00:53:33;16.2;;;9.6;;
76548;SDS011;65391;52.068;4.542;2023-03-21T00:55:58;16.2;;;9.6;;
76548;SDS011;65391;52.068;4.542;2023-03-21T00:58:23;16.2;;;9.6;;
76548;SDS011;65391;52.068;4.542;2023-03-21T01:00:48;16.2;;;9.6;;
76548;SDS011;65391;52.068;4.542;2023-03-21T01:03:13;14;;;9;;
76548;SDS011;65391;52.068;4.542;2023-03-21T01:05:40;14;;;9;;
76548;SDS011;65391;52.068;4.542;2023-03-21T01:08:03;14;;;9;;
76548;SDS011;65391;52.068;4.542;2023-03-21T01:10:28;14;;;9;;
76548;SDS011;65391;52.068;4.542;2023-03-21T01:12:53;16.1;;;9;;
76548;SDS011;65391;52.068;4.542;2023-03-21T01:15:18;16.1;;;9;;
76548;SDS011;65391;52.068;4.542;2023-03-21T01:17:43;16.1;;;9;;
76548;SDS011;65391;52.068;4.542;2023-03-21T01:20:09;16.1;;;9;;
76548;SDS011;65391;52.068;4.542;2023-03-21T01:22:33;16.4;;;9.7;;
76548;SDS011;65391;52.068;4.542;2023-03-21T01:24:58;16.4;;;9.7;;
76548;SDS011;65391;52.068;4.542;2023-03-21T01:27:23;16.4;;;9.7;;
76548;SDS011;65391;52.068;4.542;2023-03-21T01:29:48;16.4;;;9.7;;
76548;SDS011;65391;52.068;4.542;2023-03-21T01:32:13;14.6;;;9.7;;
76548;SDS011;65391;52.068;4.542;2023-03-21T01:34:38;14.6;;;9.7;;
76548;SDS011;65391;52.068;4.542;2023-03-21T01:37:03;14.6;;;9.7;;
76548;SDS011;65391;52.068;4.542;2023-03-21T01:39:28;14.6;;;9.7;;
76548;SDS011;65391;52.068;4.542;2023-03-21T01:41:53;17.3;;;9.6;;
76548;SDS011;65391;52.068;4.542;2023-03-21T01:44:18;17.3;;;9.6;;
76548;SDS011;65391;52.068;4.542;2023-03-21T01:46:44;17.3;;;9.6;;
76548;SDS011;65391;52.068;4.542;2023-03-21T01:49:12;17.3;;;9.6;;
76548;SDS011;65391;52.068;4.542;2023-03-21T01:51:35;17.3;;;9.6;;
76548;SDS011;65391;52.068;4.542;2023-03-21T01:53:58;16.3;;;9.4;;
76548;SDS011;65391;52.068;4.542;2023-03-21T01:56:24;16.3;;;9.4;;
76548;SDS011;65391;52.068;4.542;2023-03-21T01:58:49;16.3;;;9.4;;
76548;SDS011;65391;52.068;4.542;2023-03-21T02:01:13;16.3;;;9.4;;
76548;SDS011;65391;52.068;4.542;2023-03-21T02:03:38;17.1;;;9.5;;
76548;SDS011;65391;52.068;4.542;2023-03-21T02:06:04;17.1;;;9.5;;
76548;SDS011;65391;52.068;4.542;2023-03-21T02:08:29;17.1;;;9.5;;
76548;SDS011;65391;52.068;4.542;2023-03-21T02:10:53;17.1;;;9.5;;
76548;SDS011;65391;52.068;4.542;2023-03-21T02:13:18;16.5;;;8.3;;
76548;SDS011;65391;52.068;4.542;2023-03-21T02:15:45;16.5;;;8.3;;
76548;SDS011;65391;52.068;4.542;2023-03-21T02:18:10;16.5;;;8.3;;
76548;SDS011;65391;52.068;4.542;2023-03-21T02:20:44;16.5;;;8.3;;
76548;SDS011;65391;52.068;4.542;2023-03-21T02:23:38;14.7;;;7.6;;
76548;SDS011;65391;52.068;4.542;2023-03-21T02:25:33;14.7;;;7.6;;
76548;SDS011;65391;52.068;4.542;2023-03-21T02:27:50;14.7;;;7.6;;
76548;SDS011;65391;52.068;4.542;2023-03-21T02:31:24;14.7;;;7.6;;
76548;SDS011;65391;52.068;4.542;2023-03-21T02:32:46;13;;;6.7;;
76548;SDS011;65391;52.068;4.542;2023-03-21T02:35:14;13;;;6.7;;
76548;SDS011;65391;52.068;4.542;2023-03-21T02:37:30;13;;;6.7;;
76548;SDS011;65391;52.068;4.542;2023-03-21T02:39:57;13;;;6.7;;
76548;SDS011;65391;52.068;4.542;2023-03-21T02:42:19;14.6;;;7.3;;
76548;SDS011;65391;52.068;4.542;2023-03-21T02:44:44;14.6;;;7.3;;
76548;SDS011;65391;52.068;4.542;2023-03-21T02:47:10;14.6;;;7.3;;
76548;SDS011;65391;52.068;4.542;2023-03-21T02:49:35;14.6;;;7.3;;
76548;SDS011;65391;52.068;4.542;2023-03-21T02:51:58;13.9;;;6.8;;
76548;SDS011;65391;52.068;4.542;2023-03-21T02:54:24;13.9;;;6.8;;
76548;SDS011;65391;52.068;4.542;2023-03-21T02:56:49;13.9;;;6.8;;
76548;SDS011;65391;52.068;4.542;2023-03-21T02:59:13;13.9;;;6.8;;
76548;SDS011;65391;52.068;4.542;2023-03-21T03:01:38;13.9;;;6.8;;
76548;SDS011;65391;52.068;4.542;2023-03-21T03:04:03;14.2;;;6.8;;
76548;SDS011;65391;52.068;4.542;2023-03-21T03:06:30;14.2;;;6.8;;
76548;SDS011;65391;52.068;4.542;2023-03-21T03:09:00;14.2;;;6.8;;
76548;SDS011;65391;52.068;4.542;2023-03-21T03:11:23;14.2;;;6.8;;
76548;SDS011;65391;52.068;4.542;2023-03-21T03:13:52;15.6;;;7.7;;
76548;SDS011;65391;52.068;4.542;2023-03-21T03:16:12;15.6;;;7.7;;
76548;SDS011;65391;52.068;4.542;2023-03-21T03:18:38;15.6;;;7.7;;
76548;SDS011;65391;52.068;4.542;2023-03-21T03:21:00;15.6;;;7.7;;
76548;SDS011;65391;52.068;4.542;2023-03-21T03:23:26;15.6;;;7.8;;
76548;SDS011;65391;52.068;4.542;2023-03-21T03:25:50;15.6;;;7.8;;
76548;SDS011;65391;52.068;4.542;2023-03-21T03:28:14;15.6;;;7.8;;
76548;SDS011;65391;52.068;4.542;2023-03-21T03:30:38;15.6;;;7.8;;
76548;SDS011;65391;52.068;4.542;2023-03-21T03:33:03;15.2;;;7.5;;
76548;SDS011;65391;52.068;4.542;2023-03-21T03:35:28;15.2;;;7.5;;
76548;SDS011;65391;52.068;4.542;2023-03-21T03:37:55;15.2;;;7.5;;
76548;SDS011;65391;52.068;4.542;2023-03-21T03:40:20;15.2;;;7.5;;
76548;SDS011;65391;52.068;4.542;2023-03-21T03:42:45;15.1;;;7;;
76548;SDS011;65391;52.068;4.542;2023-03-21T03:45:09;15.1;;;7;;
76548;SDS011;65391;52.068;4.542;2023-03-21T03:47:36;15.1;;;7;;
76548;SDS011;65391;52.068;4.542;2023-03-21T03:50:00;15.1;;;7;;
76548;SDS011;65391;52.068;4.542;2023-03-21T03:52:25;15.9;;;7.3;;
76548;SDS011;65391;52.068;4.542;2023-03-21T03:54:48;15.9;;;7.3;;
76548;SDS011;65391;52.068;4.542;2023-03-21T03:57:13;15.9;;;7.3;;
76548;SDS011;65391;52.068;4.542;2023-03-21T03:59:39;15.9;;;7.3;;
76548;SDS011;65391;52.068;4.542;2023-03-21T04:02:03;15.5;;;7.9;;
76548;SDS011;65391;52.068;4.542;2023-03-21T04:04:28;15.5;;;7.9;;
76548;SDS011;65391;52.068;4.542;2023-03-21T04:06:54;15.5;;;7.9;;
76548;SDS011;65391;52.068;4.542;2023-03-21T04:09:18;15.5;;;7.9;;
76548;SDS011;65391;52.068;4.542;2023-03-21T04:11:43;15.5;;;7.9;;
76548;SDS011;65391;52.068;4.542;2023-03-21T04:14:08;15.2;;;7.5;;
76548;SDS011;65391;52.068;4.542;2023-03-21T04:16:33;15.2;;;7.5;;
76548;SDS011;65391;52.068;4.542;2023-03-21T04:18:59;15.2;;;7.5;;
76548;SDS011;65391;52.068;4.542;2023-03-21T04:21:23;15.2;;;7.5;;
76548;SDS011;65391;52.068;4.542;2023-03-21T04:23:48;16.2;;;8;;
76548;SDS011;65391;52.068;4.542;2023-03-21T04:26:14;16.2;;;8;;
76548;SDS011;65391;52.068;4.542;2023-03-21T04:28:38;16.2;;;8;;
76548;SDS011;65391;52.068;4.542;2023-03-21T04:31:04;16.2;;;8;;
76548;SDS011;65391;52.068;4.542;2023-03-21T04:33:28;15.3;;;7.6;;
76548;SDS011;65391;52.068;4.542;2023-03-21T04:35:54;15.3;;;7.6;;
76548;SDS011;65391;52.068;4.542;2023-03-21T04:38:19;15.3;;;7.6;;
76548;SDS011;65391;52.068;4.542;2023-03-21T04:40:43;15.3;;;7.6;;
76548;SDS011;65391;52.068;4.542;2023-03-21T04:43:09;15.5;;;7.8;;
76548;SDS011;65391;52.068;4.542;2023-03-21T04:45:34;15.5;;;7.8;;
76548;SDS011;65391;52.068;4.542;2023-03-21T04:47:59;15.5;;;7.8;;
76548;SDS011;65391;52.068;4.542;2023-03-21T04:50:24;15.5;;;7.8;;
76548;SDS011;65391;52.068;4.542;2023-03-21T04:52:49;16.2;;;8.3;;
76548;SDS011;65391;52.068;4.542;2023-03-21T04:55:14;16.2;;;8.3;;
76548;SDS011;65391;52.068;4.542;2023-03-21T04:57:39;16.2;;;8.3;;
76548;SDS011;65391;52.068;4.542;2023-03-21T05:00:04;16.2;;;8.3;;
76548;SDS011;65391;52.068;4.542;2023-03-21T05:02:29;15.3;;;7.7;;
76548;SDS011;65391;52.068;4.542;2023-03-21T05:04:54;15.3;;;7.7;;
76548;SDS011;65391;52.068;4.542;2023-03-21T05:07:19;15.3;;;7.7;;
76548;SDS011;65391;52.068;4.542;2023-03-21T05:09:44;15.3;;;7.7;;
76548;SDS011;65391;52.068;4.542;2023-03-21T05:12:09;15.4;;;7.1;;
76548;SDS011;65391;52.068;4.542;2023-03-21T05:14:34;15.4;;;7.1;;
76548;SDS011;65391;52.068;4.542;2023-03-21T05:16:59;15.4;;;7.1;;
76548;SDS011;65391;52.068;4.542;2023-03-21T05:19:26;15.4;;;7.1;;
76548;SDS011;65391;52.068;4.542;2023-03-21T05:21:49;15.4;;;7.1;;
76548;SDS011;65391;52.068;4.542;2023-03-21T05:24:15;14.5;;;7;;
76548;SDS011;65391;52.068;4.542;2023-03-21T05:26:39;14.5;;;7;;
76548;SDS011;65391;52.068;4.542;2023-03-21T05:29:04;14.5;;;7;;
76548;SDS011;65391;52.068;4.542;2023-03-21T05:31:29;14.5;;;7;;
76548;SDS011;65391;52.068;4.542;2023-03-21T05:33:54;15.9;;;8.1;;
76548;SDS011;65391;52.068;4.542;2023-03-21T05:36:19;15.9;;;8.1;;
76548;SDS011;65391;52.068;4.542;2023-03-21T05:38:44;15.9;;;8.1;;
76548;SDS011;65391;52.068;4.542;2023-03-21T05:41:09;15.9;;;8.1;;
76548;SDS011;65391;52.068;4.542;2023-03-21T05:43:34;17.6;;;8.7;;
76548;SDS011;65391;52.068;4.542;2023-03-21T05:45:59;17.6;;;8.7;;
76548;SDS011;65391;52.068;4.542;2023-03-21T05:48:24;17.6;;;8.7;;
76548;SDS011;65391;52.068;4.542;2023-03-21T05:50:49;17.6;;;8.7;;
76548;SDS011;65391;52.068;4.542;2023-03-21T05:53:14;17.2;;;9;;
76548;SDS011;65391;52.068;4.542;2023-03-21T05:55:39;17.2;;;9;;
76548;SDS011;65391;52.068;4.542;2023-03-21T05:58:04;17.2;;;9;;
76548;SDS011;65391;52.068;4.542;2023-03-21T06:00:29;17.2;;;9;;
76548;SDS011;65391;52.068;4.542;2023-03-21T06:02:54;18.8;;;9.7;;
76548;SDS011;65391;52.068;4.542;2023-03-21T06:05:19;18.8;;;9.7;;
76548;SDS011;65391;52.068;4.542;2023-03-21T06:07:44;18.8;;;9.7;;
76548;SDS011;65391;52.068;4.542;2023-03-21T06:10:10;18.8;;;9.7;;
76548;SDS011;65391;52.068;4.542;2023-03-21T06:12:34;17.7;;;9;;
76548;SDS011;65391;52.068;4.542;2023-03-21T06:14:59;17.7;;;9;;
76548;SDS011;65391;52.068;4.542;2023-03-21T06:17:24;17.7;;;9;;
76548;SDS011;65391;52.068;4.542;2023-03-21T06:19:49;17.7;;;9;;
76548;SDS011;65391;52.068;4.542;2023-03-21T06:22:14;18;;;8.2;;
76548;SDS011;65391;52.068;4.542;2023-03-21T06:24:39;18;;;8.2;;
76548;SDS011;65391;52.068;4.542;2023-03-21T06:27:04;18;;;8.2;;
76548;SDS011;65391;52.068;4.542;2023-03-21T06:29:29;18;;;8.2;;
76548;SDS011;65391;52.068;4.542;2023-03-21T06:31:54;18;;;8.2;;
76548;SDS011;65391;52.068;4.542;2023-03-21T06:34:19;14.7;;;7;;
76548;SDS011;65391;52.068;4.542;2023-03-21T06:36:44;14.7;;;7;;
76548;SDS011;65391;52.068;4.542;2023-03-21T06:39:09;14.7;;;7;;
76548;SDS011;65391;52.068;4.542;2023-03-21T06:41:34;14.7;;;7;;
76548;SDS011;65391;52.068;4.542;2023-03-21T06:43:59;16.4;;;7.3;;
76548;SDS011;65391;52.068;4.542;2023-03-21T06:46:24;16.4;;;7.3;;
76548;SDS011;65391;52.068;4.542;2023-03-21T06:48:49;16.4;;;7.3;;
76548;SDS011;65391;52.068;4.542;2023-03-21T06:51:14;16.4;;;7.3;;
76548;SDS011;65391;52.068;4.542;2023-03-21T06:53:39;18.1;;;8.8;;
76548;SDS011;65391;52.068;4.542;2023-03-21T06:56:04;18.1;;;8.8;;
76548;SDS011;65391;52.068;4.542;2023-03-21T06:58:29;18.1;;;8.8;;
76548;SDS011;65391;52.068;4.542;2023-03-21T07:00:56;18.1;;;8.8;;
76548;SDS011;65391;52.068;4.542;2023-03-21T07:03:19;15.6;;;7.8;;
76548;SDS011;65391;52.068;4.542;2023-03-21T07:05:44;15.6;;;7.8;;
76548;SDS011;65391;52.068;4.542;2023-03-21T07:08:09;15.6;;;7.8;;
76548;SDS011;65391;52.068;4.542;2023-03-21T07:10:37;15.6;;;7.8;;
76548;SDS011;65391;52.068;4.542;2023-03-21T07:12:59;14.2;;;6.9;;
76548;SDS011;65391;52.068;4.542;2023-03-21T07:15:24;14.2;;;6.9;;
76548;SDS011;65391;52.068;4.542;2023-03-21T07:17:49;14.2;;;6.9;;
76548;SDS011;65391;52.068;4.542;2023-03-21T07:20:14;14.2;;;6.9;;
76548;SDS011;65391;52.068;4.542;2023-03-21T07:22:39;14.6;;;6.9;;
76548;SDS011;65391;52.068;4.542;2023-03-21T07:25:05;14.6;;;6.9;;
76548;SDS011;65391;52.068;4.542;2023-03-21T07:27:29;14.6;;;6.9;;
76548;SDS011;65391;52.068;4.542;2023-03-21T07:29:54;14.6;;;6.9;;
76548;SDS011;65391;52.068;4.542;2023-03-21T07:32:19;14.1;;;6.4;;
76548;SDS011;65391;52.068;4.542;2023-03-21T07:34:44;14.1;;;6.4;;
76548;SDS011;65391;52.068;4.542;2023-03-21T07:37:09;14.1;;;6.4;;
76548;SDS011;65391;52.068;4.542;2023-03-21T07:39:34;14.1;;;6.4;;
76548;SDS011;65391;52.068;4.542;2023-03-21T07:41:59;14.1;;;6.4;;
76548;SDS011;65391;52.068;4.542;2023-03-21T07:44:24;14.1;;;6.3;;
76548;SDS011;65391;52.068;4.542;2023-03-21T07:46:49;14.1;;;6.3;;
76548;SDS011;65391;52.068;4.542;2023-03-21T07:49:14;14.1;;;6.3;;
76548;SDS011;65391;52.068;4.542;2023-03-21T07:51:39;14.1;;;6.3;;
76548;SDS011;65391;52.068;4.542;2023-03-21T07:54:04;14.5;;;6;;
76548;SDS011;65391;52.068;4.542;2023-03-21T07:56:29;14.5;;;6;;
76548;SDS011;65391;52.068;4.542;2023-03-21T07:58:54;14.5;;;6;;
76548;SDS011;65391;52.068;4.542;2023-03-21T08:01:19;14.5;;;6;;
76548;SDS011;65391;52.068;4.542;2023-03-21T08:03:44;13.9;;;5.9;;
76548;SDS011;65391;52.068;4.542;2023-03-21T08:06:09;13.9;;;5.9;;
76548;SDS011;65391;52.068;4.542;2023-03-21T08:08:34;13.9;;;5.9;;
76548;SDS011;65391;52.068;4.542;2023-03-21T08:10:59;13.9;;;5.9;;
76548;SDS011;65391;52.068;4.542;2023-03-21T08:13:24;13.2;;;5.9;;
76548;SDS011;65391;52.068;4.542;2023-03-21T08:15:49;13.2;;;5.9;;
76548;SDS011;65391;52.068;4.542;2023-03-21T08:18:14;13.2;;;5.9;;
76548;SDS011;65391;52.068;4.542;2023-03-21T08:20:39;13.2;;;5.9;;
76548;SDS011;65391;52.068;4.542;2023-03-21T08:23:04;14.9;;;6.3;;
76548;SDS011;65391;52.068;4.542;2023-03-21T08:25:29;14.9;;;6.3;;
76548;SDS011;65391;52.068;4.542;2023-03-21T08:27:54;14.9;;;6.3;;
76548;SDS011;65391;52.068;4.542;2023-03-21T08:30:20;14.9;;;6.3;;
76548;SDS011;65391;52.068;4.542;2023-03-21T08:32:45;14.3;;;5.3;;
76548;SDS011;65391;52.068;4.542;2023-03-21T08:35:11;14.3;;;5.3;;
76548;SDS011;65391;52.068;4.542;2023-03-21T08:37:34;14.3;;;5.3;;
76548;SDS011;65391;52.068;4.542;2023-03-21T08:39:59;14.3;;;5.3;;
76548;SDS011;65391;52.068;4.542;2023-03-21T08:42:24;11.8;;;5;;
76548;SDS011;65391;52.068;4.542;2023-03-21T08:44:49;11.8;;;5;;
76548;SDS011;65391;52.068;4.542;2023-03-21T08:47:14;11.8;;;5;;
76548;SDS011;65391;52.068;4.542;2023-03-21T08:49:40;11.8;;;5;;
76548;SDS011;65391;52.068;4.542;2023-03-21T08:52:04;11.8;;;5;;
76548;SDS011;65391;52.068;4.542;2023-03-21T08:54:29;15;;;5.4;;
76548;SDS011;65391;52.068;4.542;2023-03-21T08:56:54;15;;;5.4;;
76548;SDS011;65391;52.068;4.542;2023-03-21T08:59:19;15;;;5.4;;
76548;SDS011;65391;52.068;4.542;2023-03-21T09:01:44;15;;;5.4;;
76548;SDS011;65391;52.068;4.542;2023-03-21T09:04:09;13.1;;;4.4;;
76548;SDS011;65391;52.068;4.542;2023-03-21T09:06:34;13.1;;;4.4;;
76548;SDS011;65391;52.068;4.542;2023-03-21T09:08:59;13.1;;;4.4;;
76548;SDS011;65391;52.068;4.542;2023-03-21T09:11:24;13.1;;;4.4;;
76548;SDS011;65391;52.068;4.542;2023-03-21T09:13:49;11;;;5;;
76548;SDS011;65391;52.068;4.542;2023-03-21T09:16:14;11;;;5;;
76548;SDS011;65391;52.068;4.542;2023-03-21T09:18:39;11;;;5;;
76548;SDS011;65391;52.068;4.542;2023-03-21T09:21:07;11;;;5;;
76548;SDS011;65391;52.068;4.542;2023-03-21T09:23:29;17;;;5.7;;
76548;SDS011;65391;52.068;4.542;2023-03-21T09:25:54;17;;;5.7;;
76548;SDS011;65391;52.068;4.542;2023-03-21T09:28:19;17;;;5.7;;
76548;SDS011;65391;52.068;4.542;2023-03-21T09:30:45;17;;;5.7;;
76548;SDS011;65391;52.068;4.542;2023-03-21T09:33:09;14.9;;;6.6;;
76548;SDS011;65391;52.068;4.542;2023-03-21T09:35:34;14.9;;;6.6;;
76548;SDS011;65391;52.068;4.542;2023-03-21T09:37:59;14.9;;;6.6;;
76548;SDS011;65391;52.068;4.542;2023-03-21T09:40:31;14.9;;;6.6;;
76548;SDS011;65391;52.068;4.542;2023-03-21T09:42:55;15.1;;;6.8;;
76548;SDS011;65391;52.068;4.542;2023-03-21T09:45:16;15.1;;;6.8;;
76548;SDS011;65391;52.068;4.542;2023-03-21T09:47:40;15.1;;;6.8;;
76548;SDS011;65391;52.068;4.542;2023-03-21T09:50:09;15.1;;;6.8;;
76548;SDS011;65391;52.068;4.542;2023-03-21T09:52:32;17.8;;;6.7;;
76548;SDS011;65391;52.068;4.542;2023-03-21T09:54:54;17.8;;;6.7;;
76548;SDS011;65391;52.068;4.542;2023-03-21T09:57:25;17.8;;;6.7;;
76548;SDS011;65391;52.068;4.542;2023-03-21T09:59:44;17.8;;;6.7;;
76548;SDS011;65391;52.068;4.542;2023-03-21T10:02:20;17.8;;;6.7;;
76548;SDS011;65391;52.068;4.542;2023-03-21T10:04:34;13.6;;;6.8;;
76548;SDS011;65391;52.068;4.542;2023-03-21T10:07:01;13.6;;;6.8;;
76548;SDS011;65391;52.068;4.542;2023-03-21T10:09:25;13.6;;;6.8;;
76548;SDS011;65391;52.068;4.542;2023-03-21T10:11:50;13.6;;;6.8;;
76548;SDS011;65391;52.068;4.542;2023-03-21T10:14:17;13.7;;;7;;
76548;SDS011;65391;52.068;4.542;2023-03-21T10:16:40;13.7;;;7;;
76548;SDS011;65391;52.068;4.542;2023-03-21T10:19:09;13.7;;;7;;
76548;SDS011;65391;52.068;4.542;2023-03-21T10:21:29;13.7;;;7;;
76548;SDS011;65391;52.068;4.542;2023-03-21T10:23:55;17.4;;;6.3;;
76548;SDS011;65391;52.068;4.542;2023-03-21T10:26:20;17.4;;;6.3;;
76548;SDS011;65391;52.068;4.542;2023-03-21T10:28:44;17.4;;;6.3;;
76548;SDS011;65391;52.068;4.542;2023-03-21T10:31:10;17.4;;;6.3;;
76548;SDS011;65391;52.068;4.542;2023-03-21T10:33:35;15.6;;;7.9;;
76548;SDS011;65391;52.068;4.542;2023-03-21T10:36:01;15.6;;;7.9;;
76548;SDS011;65391;52.068;4.542;2023-03-21T10:38:25;15.6;;;7.9;;
76548;SDS011;65391;52.068;4.542;2023-03-21T10:40:50;15.6;;;7.9;;
76548;SDS011;65391;52.068;4.542;2023-03-21T10:43:17;16.8;;;7.1;;
76548;SDS011;65391;52.068;4.542;2023-03-21T10:45:39;16.8;;;7.1;;
76548;SDS011;65391;52.068;4.542;2023-03-21T10:48:05;16.8;;;7.1;;
76548;SDS011;65391;52.068;4.542;2023-03-21T10:50:29;16.8;;;7.1;;
76548;SDS011;65391;52.068;4.542;2023-03-21T10:52:55;16.9;;;7.5;;
76548;SDS011;65391;52.068;4.542;2023-03-21T10:55:22;16.9;;;7.5;;
76548;SDS011;65391;52.068;4.542;2023-03-21T10:57:44;16.9;;;7.5;;
76548;SDS011;65391;52.068;4.542;2023-03-21T11:00:10;16.9;;;7.5;;
76548;SDS011;65391;52.068;4.542;2023-03-21T11:02:36;16.7;;;7.9;;
76548;SDS011;65391;52.068;4.542;2023-03-21T11:05:02;16.7;;;7.9;;
76548;SDS011;65391;52.068;4.542;2023-03-21T11:07:27;16.7;;;7.9;;
76548;SDS011;65391;52.068;4.542;2023-03-21T11:09:52;16.7;;;7.9;;
76548;SDS011;65391;52.068;4.542;2023-03-21T11:12:15;16.7;;;7.9;;
76548;SDS011;65391;52.068;4.542;2023-03-21T11:14:41;15.5;;;8.5;;
76548;SDS011;65391;52.068;4.542;2023-03-21T11:17:22;15.5;;;8.5;;
76548;SDS011;65391;52.068;4.542;2023-03-21T11:19:31;15.5;;;8.5;;
76548;SDS011;65391;52.068;4.542;2023-03-21T11:21:55;15.5;;;8.5;;
76548;SDS011;65391;52.068;4.542;2023-03-21T11:24:19;19.2;;;10;;
76548;SDS011;65391;52.068;4.542;2023-03-21T11:26:46;19.2;;;10;;
76548;SDS011;65391;52.068;4.542;2023-03-21T11:29:16;19.2;;;10;;
76548;SDS011;65391;52.068;4.542;2023-03-21T11:31:36;19.2;;;10;;
76548;SDS011;65391;52.068;4.542;2023-03-21T11:33:59;18;;;9.4;;
76548;SDS011;65391;52.068;4.542;2023-03-21T11:36:32;18;;;9.4;;
76548;SDS011;65391;52.068;4.542;2023-03-21T11:38:51;18;;;9.4;;
76548;SDS011;65391;52.068;4.542;2023-03-21T11:41:21;18;;;9.4;;
76548;SDS011;65391;52.068;4.542;2023-03-21T11:43:39;15.2;;;7.4;;
76548;SDS011;65391;52.068;4.542;2023-03-21T11:46:06;15.2;;;7.4;;
76548;SDS011;65391;52.068;4.542;2023-03-21T11:48:29;15.2;;;7.4;;
76548;SDS011;65391;52.068;4.542;2023-03-21T11:50:58;15.2;;;7.4;;
76548;SDS011;65391;52.068;4.542;2023-03-21T11:53:25;15.6;;;8;;
76548;SDS011;65391;52.068;4.542;2023-03-21T11:55:52;15.6;;;8;;
76548;SDS011;65391;52.068;4.542;2023-03-21T11:58:17;15.6;;;8;;
76548;SDS011;65391;52.068;4.542;2023-03-21T12:00:36;15.6;;;8;;
76548;SDS011;65391;52.068;4.542;2023-03-21T12:03:07;8.5;;;4.7;;
76548;SDS011;65391;52.068;4.542;2023-03-21T12:05:25;8.5;;;4.7;;
76548;SDS011;65391;52.068;4.542;2023-03-21T12:07:52;8.5;;;4.7;;
76548;SDS011;65391;52.068;4.542;2023-03-21T12:10:28;8.5;;;4.7;;
76548;SDS011;65391;52.068;4.542;2023-03-21T12:12:43;14.2;;;5.7;;
76548;SDS011;65391;52.068;4.542;2023-03-21T12:15:09;14.2;;;5.7;;
76548;SDS011;65391;52.068;4.542;2023-03-21T12:17:35;14.2;;;5.7;;
76548;SDS011;65391;52.068;4.542;2023-03-21T12:20:02;14.2;;;5.7;;
76548;SDS011;65391;52.068;4.542;2023-03-21T12:22:25;14.2;;;5.7;;
76548;SDS011;65391;52.068;4.542;2023-03-21T12:24:47;11.7;;;5.8;;
76548;SDS011;65391;52.068;4.542;2023-03-21T12:27:11;11.7;;;5.8;;
76548;SDS011;65391;52.068;4.542;2023-03-21T12:29:40;11.7;;;5.8;;
76548;SDS011;65391;52.068;4.542;2023-03-21T12:32:05;11.7;;;5.8;;
76548;SDS011;65391;52.068;4.542;2023-03-21T12:34:34;11.9;;;6;;
76548;SDS011;65391;52.068;4.542;2023-03-21T12:36:56;11.9;;;6;;
76548;SDS011;65391;52.068;4.542;2023-03-21T12:39:21;11.9;;;6;;
76548;SDS011;65391;52.068;4.542;2023-03-21T12:41:43;11.9;;;6;;
76548;SDS011;65391;52.068;4.542;2023-03-21T12:44:07;13.7;;;5.9;;
76548;SDS011;65391;52.068;4.542;2023-03-21T12:46:32;13.7;;;5.9;;
76548;SDS011;65391;52.068;4.542;2023-03-21T12:48:56;13.7;;;5.9;;
76548;SDS011;65391;52.068;4.542;2023-03-21T12:51:22;13.7;;;5.9;;
76548;SDS011;65391;52.068;4.542;2023-03-21T12:53:51;13.5;;;5;;
76548;SDS011;65391;52.068;4.542;2023-03-21T12:56:12;13.5;;;5;;
76548;SDS011;65391;52.068;4.542;2023-03-21T12:58:40;13.5;;;5;;
76548;SDS011;65391;52.068;4.542;2023-03-21T13:01:00;13.5;;;5;;
76548;SDS011;65391;52.068;4.542;2023-03-21T13:03:25;8.4;;;5.6;;
76548;SDS011;65391;52.068;4.542;2023-03-21T13:05:51;8.4;;;5.6;;
76548;SDS011;65391;52.068;4.542;2023-03-21T13:08:16;8.4;;;5.6;;
76548;SDS011;65391;52.068;4.542;2023-03-21T13:10:41;8.4;;;5.6;;
76548;SDS011;65391;52.068;4.542;2023-03-21T13:13:10;12.1;;;6;;
76548;SDS011;65391;52.068;4.542;2023-03-21T13:15:37;12.1;;;6;;
76548;SDS011;65391;52.068;4.542;2023-03-21T13:17:58;12.1;;;6;;
76548;SDS011;65391;52.068;4.542;2023-03-21T13:20:23;12.1;;;6;;
76548;SDS011;65391;52.068;4.542;2023-03-21T13:22:45;11;;;6;;
76548;SDS011;65391;52.068;4.542;2023-03-21T13:25:16;11;;;6;;
76548;SDS011;65391;52.068;4.542;2023-03-21T13:27:36;11;;;6;;
76548;SDS011;65391;52.068;4.542;2023-03-21T13:30:01;11;;;6;;
76548;SDS011;65391;52.068;4.542;2023-03-21T13:32:28;11;;;6;;
76548;SDS011;65391;52.068;4.542;2023-03-21T13:34:53;14.7;;;7.2;;
76548;SDS011;65391;52.068;4.542;2023-03-21T13:37:16;14.7;;;7.2;;
76548;SDS011;65391;52.068;4.542;2023-03-21T13:39:41;14.7;;;7.2;;
76548;SDS011;65391;52.068;4.542;2023-03-21T13:42:05;14.7;;;7.2;;
76548;SDS011;65391;52.068;4.542;2023-03-21T13:44:31;10.5;;;6.6;;
76548;SDS011;65391;52.068;4.542;2023-03-21T13:46:59;10.5;;;6.6;;
76548;SDS011;65391;52.068;4.542;2023-03-21T13:49:29;10.5;;;6.6;;
76548;SDS011;65391;52.068;4.542;2023-03-21T13:51:45;10.5;;;6.6;;
76548;SDS011;65391;52.068;4.542;2023-03-21T13:54:16;14.5;;;7.7;;
76548;SDS011;65391;52.068;4.542;2023-03-21T13:56:47;14.5;;;7.7;;
76548;SDS011;65391;52.068;4.542;2023-03-21T13:59:00;14.5;;;7.7;;
76548;SDS011;65391;52.068;4.542;2023-03-21T14:01:27;14.5;;;7.7;;
76548;SDS011;65391;52.068;4.542;2023-03-21T14:03:55;12.2;;;6.6;;
76548;SDS011;65391;52.068;4.542;2023-03-21T14:06:15;12.2;;;6.6;;
76548;SDS011;65391;52.068;4.542;2023-03-21T14:08:40;12.2;;;6.6;;
76548;SDS011;65391;52.068;4.542;2023-03-21T14:11:07;12.2;;;6.6;;
76548;SDS011;65391;52.068;4.542;2023-03-21T14:13:30;12.1;;;6.3;;
76548;SDS011;65391;52.068;4.542;2023-03-21T14:15:58;12.1;;;6.3;;
76548;SDS011;65391;52.068;4.542;2023-03-21T14:18:21;12.1;;;6.3;;
76548;SDS011;65391;52.068;4.542;2023-03-21T14:20:50;12.1;;;6.3;;
76548;SDS011;65391;52.068;4.542;2023-03-21T14:23:12;15.7;;;7.8;;
76548;SDS011;65391;52.068;4.542;2023-03-21T14:25:36;15.7;;;7.8;;
76548;SDS011;65391;52.068;4.542;2023-03-21T14:28:02;15.7;;;7.8;;
76548;SDS011;65391;52.068;4.542;2023-03-21T14:30:26;15.7;;;7.8;;
76548;SDS011;65391;52.068;4.542;2023-03-21T14:32:53;11.5;;;4.6;;
76548;SDS011;65391;52.068;4.542;2023-03-21T14:35:15;11.5;;;4.6;;
76548;SDS011;65391;52.068;4.542;2023-03-21T14:37:45;11.5;;;4.6;;
76548;SDS011;65391;52.068;4.542;2023-03-21T14:40:07;11.5;;;4.6;;
76548;SDS011;65391;52.068;4.542;2023-03-21T14:42:32;11.5;;;4.6;;
76548;SDS011;65391;52.068;4.542;2023-03-21T14:44:55;9.5;;;5.2;;
76548;SDS011;65391;52.068;4.542;2023-03-21T14:47:21;9.5;;;5.2;;
76548;SDS011;65391;52.068;4.542;2023-03-21T14:49:45;9.5;;;5.2;;
76548;SDS011;65391;52.068;4.542;2023-03-21T14:52:11;9.5;;;5.2;;
76548;SDS011;65391;52.068;4.542;2023-03-21T14:54:35;10.1;;;4.9;;